sensor_id;sensor_type;location;lat;lon;timestamp;P1;durP1;ratioP1;P2;durP2;ratioP2
22881;SDS011;11608;50.894;5.296;2023-06-14T00:00:20;22.23;;;20.27;;
22881;SDS011;11608;50.894;5.296;2023-06-14T00:02:47;21.55;;;19.83;;
22881;SDS011;11608;50.894;5.296;2023-06-14T00:05:13;21.92;;;20.10;;
22881;SDS011;11608;50.894;5.296;2023-06-14T00:07:40;21.00;;;19.20;;
22881;SDS011;11608;50.894;5.296;2023-06-14T00:10:10;22.10;;;20.23;;
22881;SDS011;11608;50.894;5.296;2023-06-14T00:12:36;21.95;;;20.08;;
22881;SDS011;11608;50.894;5.296;2023-06-14T00:15:02;22.00;;;20.40;;
22881;SDS011;11608;50.894;5.296;2023-06-14T00:17:28;21.80;;;20.20;;
22881;SDS011;11608;50.894;5.296;2023-06-14T00:19:58;22.13;;;20.50;;
22881;SDS011;11608;50.894;5.296;2023-06-14T00:22:24;22.35;;;20.63;;
22881;SDS011;11608;50.894;5.296;2023-06-14T00:24:53;22.08;;;20.38;;
22881;SDS011;11608;50.894;5.296;2023-06-14T00:27:19;22.52;;;20.73;;
22881;SDS011;11608;50.894;5.296;2023-06-14T00:29:45;21.92;;;20.23;;
22881;SDS011;11608;50.894;5.296;2023-06-14T00:32:11;22.58;;;20.42;;
22881;SDS011;11608;50.894;5.296;2023-06-14T00:34:37;23.05;;;21.05;;
22881;SDS011;11608;50.894;5.296;2023-06-14T00:37:04;22.15;;;20.35;;
22881;SDS011;11608;50.894;5.296;2023-06-14T00:39:29;21.85;;;20.05;;
22881;SDS011;11608;50.894;5.296;2023-06-14T00:41:55;22.80;;;21.02;;
22881;SDS011;11608;50.894;5.296;2023-06-14T00:44:22;22.55;;;20.63;;
22881;SDS011;11608;50.894;5.296;2023-06-14T00:46:48;22.92;;;20.92;;
22881;SDS011;11608;50.894;5.296;2023-06-14T00:49:15;22.05;;;20.15;;
22881;SDS011;11608;50.894;5.296;2023-06-14T00:51:41;22.23;;;20.23;;
22881;SDS011;11608;50.894;5.296;2023-06-14T00:54:08;23.17;;;21.25;;
22881;SDS011;11608;50.894;5.296;2023-06-14T00:56:37;22.77;;;20.88;;
22881;SDS011;11608;50.894;5.296;2023-06-14T00:59:03;22.75;;;20.98;;
22881;SDS011;11608;50.894;5.296;2023-06-14T01:01:32;22.30;;;20.48;;
22881;SDS011;11608;50.894;5.296;2023-06-14T01:03:59;22.67;;;21.08;;
22881;SDS011;11608;50.894;5.296;2023-06-14T01:06:46;23.55;;;21.75;;
22881;SDS011;11608;50.894;5.296;2023-06-14T01:09:27;23.00;;;21.13;;
22881;SDS011;11608;50.894;5.296;2023-06-14T01:12:04;23.08;;;21.27;;
22881;SDS011;11608;50.894;5.296;2023-06-14T01:14:33;23.13;;;21.40;;
22881;SDS011;11608;50.894;5.296;2023-06-14T01:17:00;22.17;;;20.27;;
22881;SDS011;11608;50.894;5.296;2023-06-14T01:19:26;22.60;;;20.95;;
22881;SDS011;11608;50.894;5.296;2023-06-14T01:21:53;23.52;;;21.17;;
22881;SDS011;11608;50.894;5.296;2023-06-14T01:24:20;23.60;;;21.80;;
22881;SDS011;11608;50.894;5.296;2023-06-14T01:26:51;23.52;;;21.55;;
22881;SDS011;11608;50.894;5.296;2023-06-14T01:29:20;23.63;;;21.70;;
22881;SDS011;11608;50.894;5.296;2023-06-14T01:31:47;22.65;;;20.75;;
22881;SDS011;11608;50.894;5.296;2023-06-14T01:34:14;23.02;;;21.10;;
22881;SDS011;11608;50.894;5.296;2023-06-14T01:36:41;22.90;;;21.08;;
22881;SDS011;11608;50.894;5.296;2023-06-14T01:39:09;22.58;;;20.80;;
22881;SDS011;11608;50.894;5.296;2023-06-14T01:41:36;23.08;;;21.15;;
22881;SDS011;11608;50.894;5.296;2023-06-14T01:44:02;23.38;;;21.50;;
22881;SDS011;11608;50.894;5.296;2023-06-14T01:46:29;24.02;;;22.02;;
22881;SDS011;11608;50.894;5.296;2023-06-14T01:48:55;23.05;;;21.08;;
22881;SDS011;11608;50.894;5.296;2023-06-14T01:51:21;22.73;;;21.00;;
22881;SDS011;11608;50.894;5.296;2023-06-14T01:53:47;23.83;;;21.83;;
22881;SDS011;11608;50.894;5.296;2023-06-14T01:56:13;22.13;;;20.52;;
22881;SDS011;11608;50.894;5.296;2023-06-14T01:58:39;22.58;;;20.83;;
22881;SDS011;11608;50.894;5.296;2023-06-14T02:01:06;22.85;;;21.13;;
22881;SDS011;11608;50.894;5.296;2023-06-14T02:03:32;22.63;;;20.60;;
22881;SDS011;11608;50.894;5.296;2023-06-14T02:05:59;22.92;;;21.15;;
22881;SDS011;11608;50.894;5.296;2023-06-14T02:08:25;22.77;;;20.98;;
22881;SDS011;11608;50.894;5.296;2023-06-14T02:10:52;22.92;;;21.13;;
22881;SDS011;11608;50.894;5.296;2023-06-14T02:13:18;22.38;;;20.48;;
22881;SDS011;11608;50.894;5.296;2023-06-14T02:15:44;22.50;;;20.83;;
22881;SDS011;11608;50.894;5.296;2023-06-14T02:18:10;22.95;;;21.23;;
22881;SDS011;11608;50.894;5.296;2023-06-14T02:20:36;22.95;;;21.15;;
22881;SDS011;11608;50.894;5.296;2023-06-14T02:23:03;23.30;;;21.38;;
22881;SDS011;11608;50.894;5.296;2023-06-14T02:25:29;23.23;;;21.27;;
22881;SDS011;11608;50.894;5.296;2023-06-14T02:27:55;23.80;;;21.60;;
22881;SDS011;11608;50.894;5.296;2023-06-14T02:30:21;23.83;;;21.92;;
22881;SDS011;11608;50.894;5.296;2023-06-14T02:32:47;22.58;;;20.88;;
22881;SDS011;11608;50.894;5.296;2023-06-14T02:35:13;23.10;;;21.40;;
22881;SDS011;11608;50.894;5.296;2023-06-14T02:37:39;23.13;;;21.33;;
22881;SDS011;11608;50.894;5.296;2023-06-14T02:40:06;23.58;;;21.52;;
22881;SDS011;11608;50.894;5.296;2023-06-14T02:42:34;24.02;;;21.95;;
22881;SDS011;11608;50.894;5.296;2023-06-14T02:45:00;24.45;;;22.38;;
22881;SDS011;11608;50.894;5.296;2023-06-14T02:47:27;23.17;;;21.38;;
22881;SDS011;11608;50.894;5.296;2023-06-14T02:49:53;23.52;;;21.73;;
22881;SDS011;11608;50.894;5.296;2023-06-14T02:52:19;23.98;;;21.88;;
22881;SDS011;11608;50.894;5.296;2023-06-14T02:54:45;23.75;;;21.63;;
22881;SDS011;11608;50.894;5.296;2023-06-14T02:57:12;23.30;;;21.30;;
22881;SDS011;11608;50.894;5.296;2023-06-14T02:59:38;23.45;;;21.75;;
22881;SDS011;11608;50.894;5.296;2023-06-14T03:02:04;24.10;;;22.25;;
22881;SDS011;11608;50.894;5.296;2023-06-14T03:04:30;23.27;;;21.30;;
22881;SDS011;11608;50.894;5.296;2023-06-14T03:07:02;23.92;;;21.80;;
22881;SDS011;11608;50.894;5.296;2023-06-14T03:09:34;23.27;;;21.40;;
22881;SDS011;11608;50.894;5.296;2023-06-14T03:12:00;23.60;;;21.83;;
22881;SDS011;11608;50.894;5.296;2023-06-14T03:14:28;22.65;;;20.85;;
22881;SDS011;11608;50.894;5.296;2023-06-14T03:16:55;23.70;;;21.80;;
22881;SDS011;11608;50.894;5.296;2023-06-14T03:19:22;23.88;;;22.08;;
22881;SDS011;11608;50.894;5.296;2023-06-14T03:21:48;23.92;;;21.92;;
22881;SDS011;11608;50.894;5.296;2023-06-14T03:24:14;24.60;;;22.45;;
22881;SDS011;11608;50.894;5.296;2023-06-14T03:26:43;24.25;;;22.35;;
22881;SDS011;11608;50.894;5.296;2023-06-14T03:29:09;24.15;;;21.80;;
22881;SDS011;11608;50.894;5.296;2023-06-14T03:31:35;23.63;;;21.75;;
22881;SDS011;11608;50.894;5.296;2023-06-14T03:34:01;24.70;;;22.58;;
22881;SDS011;11608;50.894;5.296;2023-06-14T03:36:28;25.23;;;23.10;;
22881;SDS011;11608;50.894;5.296;2023-06-14T03:38:54;24.52;;;22.52;;
22881;SDS011;11608;50.894;5.296;2023-06-14T03:41:20;24.95;;;22.95;;
22881;SDS011;11608;50.894;5.296;2023-06-14T03:43:46;24.70;;;22.70;;
22881;SDS011;11608;50.894;5.296;2023-06-14T03:46:12;25.52;;;22.98;;
22881;SDS011;11608;50.894;5.296;2023-06-14T03:48:38;25.85;;;23.55;;
22881;SDS011;11608;50.894;5.296;2023-06-14T03:51:05;26.30;;;23.75;;
22881;SDS011;11608;50.894;5.296;2023-06-14T03:53:31;25.80;;;23.60;;
22881;SDS011;11608;50.894;5.296;2023-06-14T03:55:57;26.40;;;24.30;;
22881;SDS011;11608;50.894;5.296;2023-06-14T03:58:25;25.45;;;23.17;;
22881;SDS011;11608;50.894;5.296;2023-06-14T04:00:51;25.92;;;23.55;;
22881;SDS011;11608;50.894;5.296;2023-06-14T04:03:17;24.95;;;22.73;;
22881;SDS011;11608;50.894;5.296;2023-06-14T04:05:44;25.98;;;23.58;;
22881;SDS011;11608;50.894;5.296;2023-06-14T04:08:14;25.63;;;23.25;;
22881;SDS011;11608;50.894;5.296;2023-06-14T04:10:40;25.85;;;23.70;;
22881;SDS011;11608;50.894;5.296;2023-06-14T04:13:07;24.75;;;22.58;;
22881;SDS011;11608;50.894;5.296;2023-06-14T04:15:33;26.83;;;24.27;;
22881;SDS011;11608;50.894;5.296;2023-06-14T04:17:59;25.05;;;22.83;;
22881;SDS011;11608;50.894;5.296;2023-06-14T04:20:26;25.27;;;23.13;;
22881;SDS011;11608;50.894;5.296;2023-06-14T04:22:52;25.73;;;23.35;;
22881;SDS011;11608;50.894;5.296;2023-06-14T04:25:18;24.80;;;22.67;;
22881;SDS011;11608;50.894;5.296;2023-06-14T04:27:44;25.13;;;22.88;;
22881;SDS011;11608;50.894;5.296;2023-06-14T04:30:12;25.38;;;23.00;;
22881;SDS011;11608;50.894;5.296;2023-06-14T04:32:38;25.55;;;23.20;;
22881;SDS011;11608;50.894;5.296;2023-06-14T04:35:07;25.17;;;22.70;;
22881;SDS011;11608;50.894;5.296;2023-06-14T04:37:34;25.02;;;22.67;;
22881;SDS011;11608;50.894;5.296;2023-06-14T04:40:05;24.98;;;22.58;;
22881;SDS011;11608;50.894;5.296;2023-06-14T04:42:31;26.10;;;23.73;;
22881;SDS011;11608;50.894;5.296;2023-06-14T04:44:57;26.15;;;24.05;;
22881;SDS011;11608;50.894;5.296;2023-06-14T04:47:24;26.05;;;23.65;;
22881;SDS011;11608;50.894;5.296;2023-06-14T04:49:54;25.05;;;22.83;;
22881;SDS011;11608;50.894;5.296;2023-06-14T04:52:20;25.52;;;23.20;;
22881;SDS011;11608;50.894;5.296;2023-06-14T04:54:47;27.20;;;24.23;;
22881;SDS011;11608;50.894;5.296;2023-06-14T04:57:13;25.52;;;23.15;;
22881;SDS011;11608;50.894;5.296;2023-06-14T04:59:42;25.33;;;23.02;;
22881;SDS011;11608;50.894;5.296;2023-06-14T05:02:09;27.77;;;23.42;;
22881;SDS011;11608;50.894;5.296;2023-06-14T05:04:35;26.17;;;23.50;;
22881;SDS011;11608;50.894;5.296;2023-06-14T05:07:04;30.13;;;24.35;;
22881;SDS011;11608;50.894;5.296;2023-06-14T05:09:31;25.75;;;23.20;;
22881;SDS011;11608;50.894;5.296;2023-06-14T05:11:57;31.77;;;23.83;;
22881;SDS011;11608;50.894;5.296;2023-06-14T05:14:25;26.30;;;23.90;;
22881;SDS011;11608;50.894;5.296;2023-06-14T05:16:51;25.30;;;23.05;;
22881;SDS011;11608;50.894;5.296;2023-06-14T05:19:18;25.55;;;22.95;;
22881;SDS011;11608;50.894;5.296;2023-06-14T05:21:45;28.13;;;24.17;;
22881;SDS011;11608;50.894;5.296;2023-06-14T05:24:12;26.42;;;23.60;;
22881;SDS011;11608;50.894;5.296;2023-06-14T05:26:38;24.65;;;22.45;;
22881;SDS011;11608;50.894;5.296;2023-06-14T05:29:04;25.98;;;23.42;;
22881;SDS011;11608;50.894;5.296;2023-06-14T05:31:31;26.40;;;23.77;;
22881;SDS011;11608;50.894;5.296;2023-06-14T05:33:57;25.38;;;23.17;;
22881;SDS011;11608;50.894;5.296;2023-06-14T05:36:23;25.58;;;23.30;;
22881;SDS011;11608;50.894;5.296;2023-06-14T05:38:50;23.88;;;21.70;;
22881;SDS011;11608;50.894;5.296;2023-06-14T05:41:16;25.45;;;22.90;;
22881;SDS011;11608;50.894;5.296;2023-06-14T05:43:42;25.15;;;22.85;;
22881;SDS011;11608;50.894;5.296;2023-06-14T05:46:08;25.30;;;23.00;;
22881;SDS011;11608;50.894;5.296;2023-06-14T05:48:34;27.00;;;22.83;;
22881;SDS011;11608;50.894;5.296;2023-06-14T05:51:00;25.58;;;23.17;;
22881;SDS011;11608;50.894;5.296;2023-06-14T05:53:26;25.38;;;23.02;;
22881;SDS011;11608;50.894;5.296;2023-06-14T05:55:52;25.80;;;23.23;;
22881;SDS011;11608;50.894;5.296;2023-06-14T05:58:20;24.88;;;22.65;;
22881;SDS011;11608;50.894;5.296;2023-06-14T06:00:46;25.75;;;23.40;;
22881;SDS011;11608;50.894;5.296;2023-06-14T06:03:12;25.30;;;22.92;;
22881;SDS011;11608;50.894;5.296;2023-06-14T06:05:38;24.30;;;21.88;;
22881;SDS011;11608;50.894;5.296;2023-06-14T06:08:04;27.23;;;24.42;;
22881;SDS011;11608;50.894;5.296;2023-06-14T06:10:30;26.60;;;23.30;;
22881;SDS011;11608;50.894;5.296;2023-06-14T06:12:56;26.40;;;23.92;;
22881;SDS011;11608;50.894;5.296;2023-06-14T06:15:22;26.17;;;23.15;;
22881;SDS011;11608;50.894;5.296;2023-06-14T06:17:48;24.65;;;22.15;;
22881;SDS011;11608;50.894;5.296;2023-06-14T06:20:16;25.30;;;22.92;;
22881;SDS011;11608;50.894;5.296;2023-06-14T06:22:42;25.88;;;22.75;;
22881;SDS011;11608;50.894;5.296;2023-06-14T06:25:08;25.27;;;22.60;;
22881;SDS011;11608;50.894;5.296;2023-06-14T06:27:34;25.75;;;23.48;;
22881;SDS011;11608;50.894;5.296;2023-06-14T06:30:02;26.67;;;23.80;;
22881;SDS011;11608;50.894;5.296;2023-06-14T06:32:29;26.10;;;23.63;;
22881;SDS011;11608;50.894;5.296;2023-06-14T06:34:55;25.38;;;22.90;;
22881;SDS011;11608;50.894;5.296;2023-06-14T06:37:21;26.98;;;24.40;;
22881;SDS011;11608;50.894;5.296;2023-06-14T06:39:46;28.25;;;24.00;;
22881;SDS011;11608;50.894;5.296;2023-06-14T06:42:12;26.15;;;23.63;;
22881;SDS011;11608;50.894;5.296;2023-06-14T06:44:39;24.95;;;22.70;;
22881;SDS011;11608;50.894;5.296;2023-06-14T06:47:05;26.90;;;23.98;;
22881;SDS011;11608;50.894;5.296;2023-06-14T06:49:31;26.38;;;23.77;;
22881;SDS011;11608;50.894;5.296;2023-06-14T06:52:00;25.48;;;23.35;;
22881;SDS011;11608;50.894;5.296;2023-06-14T06:54:27;25.33;;;22.95;;
22881;SDS011;11608;50.894;5.296;2023-06-14T06:56:53;26.75;;;23.88;;
22881;SDS011;11608;50.894;5.296;2023-06-14T06:59:19;25.70;;;23.13;;
22881;SDS011;11608;50.894;5.296;2023-06-14T07:01:46;26.00;;;23.40;;
22881;SDS011;11608;50.894;5.296;2023-06-14T07:04:12;25.92;;;23.42;;
22881;SDS011;11608;50.894;5.296;2023-06-14T07:06:38;25.38;;;22.98;;
22881;SDS011;11608;50.894;5.296;2023-06-14T07:09:04;24.67;;;22.63;;
22881;SDS011;11608;50.894;5.296;2023-06-14T07:11:33;25.02;;;22.70;;
22881;SDS011;11608;50.894;5.296;2023-06-14T07:13:59;25.05;;;22.48;;
22881;SDS011;11608;50.894;5.296;2023-06-14T07:16:25;24.52;;;22.23;;
22881;SDS011;11608;50.894;5.296;2023-06-14T07:18:51;24.77;;;22.58;;
22881;SDS011;11608;50.894;5.296;2023-06-14T07:21:17;24.77;;;22.50;;
22881;SDS011;11608;50.894;5.296;2023-06-14T07:23:43;23.50;;;21.33;;
22881;SDS011;11608;50.894;5.296;2023-06-14T07:26:10;23.65;;;21.55;;
22881;SDS011;11608;50.894;5.296;2023-06-14T07:28:36;24.27;;;22.33;;
22881;SDS011;11608;50.894;5.296;2023-06-14T07:31:02;23.63;;;21.48;;
22881;SDS011;11608;50.894;5.296;2023-06-14T07:33:28;23.42;;;21.55;;
22881;SDS011;11608;50.894;5.296;2023-06-14T07:35:54;23.48;;;21.42;;
22881;SDS011;11608;50.894;5.296;2023-06-14T07:38:20;22.80;;;20.85;;
22881;SDS011;11608;50.894;5.296;2023-06-14T07:40:46;23.55;;;21.35;;
22881;SDS011;11608;50.894;5.296;2023-06-14T07:43:12;22.08;;;20.30;;
22881;SDS011;11608;50.894;5.296;2023-06-14T07:45:39;23.10;;;21.00;;
22881;SDS011;11608;50.894;5.296;2023-06-14T07:48:05;23.67;;;21.58;;
22881;SDS011;11608;50.894;5.296;2023-06-14T07:50:31;22.73;;;20.65;;
22881;SDS011;11608;50.894;5.296;2023-06-14T07:52:57;22.73;;;20.83;;
22881;SDS011;11608;50.894;5.296;2023-06-14T07:55:23;23.52;;;20.98;;
22881;SDS011;11608;50.894;5.296;2023-06-14T07:57:50;24.02;;;21.83;;
22881;SDS011;11608;50.894;5.296;2023-06-14T08:00:16;22.88;;;21.02;;
22881;SDS011;11608;50.894;5.296;2023-06-14T08:02:43;23.35;;;21.33;;
22881;SDS011;11608;50.894;5.296;2023-06-14T08:05:12;23.25;;;21.25;;
22881;SDS011;11608;50.894;5.296;2023-06-14T08:07:39;23.75;;;21.65;;
22881;SDS011;11608;50.894;5.296;2023-06-14T08:10:05;23.60;;;21.70;;
22881;SDS011;11608;50.894;5.296;2023-06-14T08:12:32;22.48;;;20.58;;
22881;SDS011;11608;50.894;5.296;2023-06-14T08:14:58;23.10;;;21.05;;
22881;SDS011;11608;50.894;5.296;2023-06-14T08:17:24;22.88;;;20.67;;
22881;SDS011;11608;50.894;5.296;2023-06-14T08:19:51;22.48;;;20.67;;
22881;SDS011;11608;50.894;5.296;2023-06-14T08:22:19;23.65;;;21.55;;
22881;SDS011;11608;50.894;5.296;2023-06-14T08:24:46;23.23;;;21.45;;
22881;SDS011;11608;50.894;5.296;2023-06-14T08:27:13;23.00;;;21.20;;
22881;SDS011;11608;50.894;5.296;2023-06-14T08:29:39;22.52;;;20.52;;
22881;SDS011;11608;50.894;5.296;2023-06-14T08:32:06;24.55;;;22.38;;
22881;SDS011;11608;50.894;5.296;2023-06-14T08:34:32;23.63;;;21.65;;
22881;SDS011;11608;50.894;5.296;2023-06-14T08:36:58;24.30;;;22.35;;
22881;SDS011;11608;50.894;5.296;2023-06-14T08:39:24;24.08;;;22.02;;
22881;SDS011;11608;50.894;5.296;2023-06-14T08:41:50;24.48;;;21.77;;
22881;SDS011;11608;50.894;5.296;2023-06-14T08:44:18;23.50;;;21.25;;
22881;SDS011;11608;50.894;5.296;2023-06-14T08:46:44;23.25;;;21.17;;
22881;SDS011;11608;50.894;5.296;2023-06-14T08:49:11;22.52;;;20.40;;
22881;SDS011;11608;50.894;5.296;2023-06-14T08:51:38;22.67;;;20.73;;
22881;SDS011;11608;50.894;5.296;2023-06-14T08:54:05;22.25;;;20.48;;
22881;SDS011;11608;50.894;5.296;2023-06-14T08:56:32;23.45;;;21.33;;
22881;SDS011;11608;50.894;5.296;2023-06-14T08:59:01;23.65;;;21.20;;
22881;SDS011;11608;50.894;5.296;2023-06-14T09:01:35;23.77;;;21.33;;
22881;SDS011;11608;50.894;5.296;2023-06-14T09:04:01;22.50;;;20.25;;
22881;SDS011;11608;50.894;5.296;2023-06-14T09:06:27;21.90;;;20.20;;
22881;SDS011;11608;50.894;5.296;2023-06-14T09:08:54;24.23;;;21.88;;
22881;SDS011;11608;50.894;5.296;2023-06-14T09:11:24;22.90;;;20.90;;
22881;SDS011;11608;50.894;5.296;2023-06-14T09:13:51;23.33;;;21.00;;
22881;SDS011;11608;50.894;5.296;2023-06-14T09:16:17;28.25;;;21.27;;
22881;SDS011;11608;50.894;5.296;2023-06-14T09:18:44;23.23;;;20.98;;
22881;SDS011;11608;50.894;5.296;2023-06-14T09:21:13;22.27;;;20.38;;
22881;SDS011;11608;50.894;5.296;2023-06-14T09:23:46;22.65;;;20.88;;
22881;SDS011;11608;50.894;5.296;2023-06-14T09:28:45;22.35;;;20.33;;
22881;SDS011;11608;50.894;5.296;2023-06-14T09:31:11;23.20;;;20.23;;
22881;SDS011;11608;50.894;5.296;2023-06-14T09:33:38;22.58;;;20.20;;
22881;SDS011;11608;50.894;5.296;2023-06-14T09:36:04;22.38;;;20.10;;
22881;SDS011;11608;50.894;5.296;2023-06-14T09:38:30;21.92;;;20.08;;
22881;SDS011;11608;50.894;5.296;2023-06-14T09:40:57;22.25;;;20.30;;
22881;SDS011;11608;50.894;5.296;2023-06-14T09:43:23;22.45;;;20.23;;
22881;SDS011;11608;50.894;5.296;2023-06-14T09:45:52;22.80;;;20.98;;
22881;SDS011;11608;50.894;5.296;2023-06-14T09:48:19;22.35;;;20.25;;
22881;SDS011;11608;50.894;5.296;2023-06-14T09:50:45;21.08;;;19.00;;
22881;SDS011;11608;50.894;5.296;2023-06-14T09:53:14;21.30;;;19.50;;
22881;SDS011;11608;50.894;5.296;2023-06-14T09:55:41;20.38;;;18.63;;
22881;SDS011;11608;50.894;5.296;2023-06-14T09:58:08;21.58;;;19.38;;
22881;SDS011;11608;50.894;5.296;2023-06-14T10:00:35;20.65;;;18.83;;
22881;SDS011;11608;50.894;5.296;2023-06-14T10:03:03;21.27;;;19.08;;
22881;SDS011;11608;50.894;5.296;2023-06-14T10:05:33;20.60;;;18.90;;
22881;SDS011;11608;50.894;5.296;2023-06-14T10:08:02;21.10;;;19.38;;
22881;SDS011;11608;50.894;5.296;2023-06-14T10:10:30;21.65;;;19.83;;
22881;SDS011;11608;50.894;5.296;2023-06-14T10:12:56;20.73;;;19.20;;
22881;SDS011;11608;50.894;5.296;2023-06-14T10:15:46;21.10;;;19.30;;
22881;SDS011;11608;50.894;5.296;2023-06-14T10:21:04;20.50;;;18.83;;
22881;SDS011;11608;50.894;5.296;2023-06-14T10:23:34;20.73;;;19.17;;
22881;SDS011;11608;50.894;5.296;2023-06-14T10:26:01;21.80;;;20.10;;
22881;SDS011;11608;50.894;5.296;2023-06-14T10:28:27;20.90;;;19.38;;
22881;SDS011;11608;50.894;5.296;2023-06-14T10:31:02;21.20;;;19.50;;
22881;SDS011;11608;50.894;5.296;2023-06-14T10:33:36;21.90;;;19.80;;
22881;SDS011;11608;50.894;5.296;2023-06-14T10:36:08;22.15;;;20.00;;
22881;SDS011;11608;50.894;5.296;2023-06-14T10:38:36;20.25;;;18.23;;
22881;SDS011;11608;50.894;5.296;2023-06-14T10:41:03;21.08;;;19.02;;
22881;SDS011;11608;50.894;5.296;2023-06-14T10:43:29;21.10;;;19.30;;
22881;SDS011;11608;50.894;5.296;2023-06-14T10:46:14;21.50;;;19.77;;
22881;SDS011;11608;50.894;5.296;2023-06-14T10:48:42;22.30;;;20.27;;
22881;SDS011;11608;50.894;5.296;2023-06-14T10:51:15;20.90;;;19.17;;
22881;SDS011;11608;50.894;5.296;2023-06-14T10:53:45;21.30;;;19.40;;
22881;SDS011;11608;50.894;5.296;2023-06-14T10:56:26;20.52;;;18.92;;
22881;SDS011;11608;50.894;5.296;2023-06-14T10:58:53;21.17;;;19.48;;
22881;SDS011;11608;50.894;5.296;2023-06-14T11:01:23;20.52;;;19.10;;
22881;SDS011;11608;50.894;5.296;2023-06-14T11:03:53;21.35;;;19.45;;
22881;SDS011;11608;50.894;5.296;2023-06-14T11:06:21;20.73;;;19.13;;
22881;SDS011;11608;50.894;5.296;2023-06-14T11:11:22;22.00;;;19.95;;
22881;SDS011;11608;50.894;5.296;2023-06-14T11:13:48;22.20;;;20.17;;
22881;SDS011;11608;50.894;5.296;2023-06-14T11:16:15;20.50;;;19.00;;
22881;SDS011;11608;50.894;5.296;2023-06-14T11:18:41;20.60;;;19.10;;
22881;SDS011;11608;50.894;5.296;2023-06-14T11:21:08;21.45;;;19.40;;
22881;SDS011;11608;50.894;5.296;2023-06-14T11:23:34;21.10;;;19.23;;
22881;SDS011;11608;50.894;5.296;2023-06-14T11:26:00;21.75;;;20.17;;
22881;SDS011;11608;50.894;5.296;2023-06-14T11:28:39;21.42;;;19.77;;
22881;SDS011;11608;50.894;5.296;2023-06-14T11:31:06;20.95;;;19.27;;
22881;SDS011;11608;50.894;5.296;2023-06-14T11:33:33;21.30;;;19.63;;
22881;SDS011;11608;50.894;5.296;2023-06-14T11:36:01;20.80;;;19.10;;
22881;SDS011;11608;50.894;5.296;2023-06-14T11:38:29;20.92;;;19.05;;
22881;SDS011;11608;50.894;5.296;2023-06-14T11:40:58;19.98;;;18.38;;
22881;SDS011;11608;50.894;5.296;2023-06-14T11:43:25;19.77;;;18.45;;
22881;SDS011;11608;50.894;5.296;2023-06-14T11:45:52;19.85;;;18.15;;
22881;SDS011;11608;50.894;5.296;2023-06-14T11:48:18;19.52;;;18.02;;
22881;SDS011;11608;50.894;5.296;2023-06-14T11:50:49;19.55;;;18.15;;
22881;SDS011;11608;50.894;5.296;2023-06-14T11:53:16;20.20;;;18.75;;
22881;SDS011;11608;50.894;5.296;2023-06-14T11:55:42;20.35;;;18.80;;
22881;SDS011;11608;50.894;5.296;2023-06-14T11:58:10;19.90;;;18.20;;
22881;SDS011;11608;50.894;5.296;2023-06-14T12:00:36;19.60;;;18.10;;
22881;SDS011;11608;50.894;5.296;2023-06-14T12:03:02;18.92;;;17.50;;
22881;SDS011;11608;50.894;5.296;2023-06-14T12:05:28;19.58;;;18.23;;
22881;SDS011;11608;50.894;5.296;2023-06-14T12:07:58;19.48;;;18.17;;
22881;SDS011;11608;50.894;5.296;2023-06-14T12:10:25;20.60;;;19.20;;
22881;SDS011;11608;50.894;5.296;2023-06-14T12:12:51;19.13;;;17.73;;
22881;SDS011;11608;50.894;5.296;2023-06-14T12:15:22;19.88;;;18.20;;
22881;SDS011;11608;50.894;5.296;2023-06-14T12:17:48;19.77;;;17.98;;
22881;SDS011;11608;50.894;5.296;2023-06-14T12:20:15;19.25;;;17.90;;
22881;SDS011;11608;50.894;5.296;2023-06-14T12:22:51;18.25;;;17.00;;
22881;SDS011;11608;50.894;5.296;2023-06-14T12:25:28;19.83;;;18.33;;
22881;SDS011;11608;50.894;5.296;2023-06-14T12:27:56;19.40;;;18.10;;
22881;SDS011;11608;50.894;5.296;2023-06-14T12:30:22;19.80;;;18.40;;
22881;SDS011;11608;50.894;5.296;2023-06-14T12:32:48;20.20;;;18.80;;
22881;SDS011;11608;50.894;5.296;2023-06-14T12:35:16;19.65;;;18.00;;
22881;SDS011;11608;50.894;5.296;2023-06-14T12:37:43;19.67;;;18.08;;
22881;SDS011;11608;50.894;5.296;2023-06-14T12:40:10;20.33;;;18.85;;
22881;SDS011;11608;50.894;5.296;2023-06-14T12:42:37;20.10;;;18.27;;
22881;SDS011;11608;50.894;5.296;2023-06-14T12:45:03;20.38;;;18.77;;
22881;SDS011;11608;50.894;5.296;2023-06-14T12:47:29;19.00;;;17.70;;
22881;SDS011;11608;50.894;5.296;2023-06-14T12:49:55;17.83;;;16.63;;
22881;SDS011;11608;50.894;5.296;2023-06-14T12:52:21;19.52;;;18.13;;
22881;SDS011;11608;50.894;5.296;2023-06-14T12:54:47;19.88;;;18.33;;
22881;SDS011;11608;50.894;5.296;2023-06-14T12:57:13;19.60;;;18.10;;
22881;SDS011;11608;50.894;5.296;2023-06-14T12:59:39;19.63;;;18.15;;
22881;SDS011;11608;50.894;5.296;2023-06-14T13:02:15;19.88;;;18.40;;
22881;SDS011;11608;50.894;5.296;2023-06-14T13:04:42;19.13;;;17.55;;
22881;SDS011;11608;50.894;5.296;2023-06-14T13:07:08;20.13;;;18.38;;
22881;SDS011;11608;50.894;5.296;2023-06-14T13:09:36;19.80;;;18.30;;
22881;SDS011;11608;50.894;5.296;2023-06-14T13:12:02;20.23;;;18.52;;
22881;SDS011;11608;50.894;5.296;2023-06-14T13:14:28;19.05;;;17.55;;
22881;SDS011;11608;50.894;5.296;2023-06-14T13:16:54;20.15;;;18.05;;
22881;SDS011;11608;50.894;5.296;2023-06-14T13:19:20;19.52;;;18.10;;
22881;SDS011;11608;50.894;5.296;2023-06-14T13:21:47;20.20;;;18.70;;
22881;SDS011;11608;50.894;5.296;2023-06-14T13:24:13;19.83;;;18.38;;
22881;SDS011;11608;50.894;5.296;2023-06-14T13:26:39;19.92;;;18.40;;
22881;SDS011;11608;50.894;5.296;2023-06-14T13:29:05;20.05;;;18.40;;
22881;SDS011;11608;50.894;5.296;2023-06-14T13:31:31;19.38;;;17.65;;
22881;SDS011;11608;50.894;5.296;2023-06-14T13:33:58;19.52;;;18.13;;
22881;SDS011;11608;50.894;5.296;2023-06-14T13:36:24;19.25;;;17.85;;
22881;SDS011;11608;50.894;5.296;2023-06-14T13:38:50;19.30;;;17.77;;
22881;SDS011;11608;50.894;5.296;2023-06-14T13:41:17;18.92;;;17.52;;
22881;SDS011;11608;50.894;5.296;2023-06-14T13:43:43;19.23;;;17.50;;
22881;SDS011;11608;50.894;5.296;2023-06-14T13:46:09;18.83;;;17.23;;
22881;SDS011;11608;50.894;5.296;2023-06-14T13:48:35;18.80;;;17.27;;
22881;SDS011;11608;50.894;5.296;2023-06-14T13:51:01;18.98;;;17.52;;
22881;SDS011;11608;50.894;5.296;2023-06-14T13:53:29;18.92;;;17.65;;
22881;SDS011;11608;50.894;5.296;2023-06-14T13:55:55;18.98;;;17.58;;
22881;SDS011;11608;50.894;5.296;2023-06-14T13:58:21;18.90;;;17.60;;
22881;SDS011;11608;50.894;5.296;2023-06-14T14:00:49;19.20;;;17.67;;
22881;SDS011;11608;50.894;5.296;2023-06-14T14:03:15;20.05;;;18.10;;
22881;SDS011;11608;50.894;5.296;2023-06-14T14:05:41;19.63;;;18.00;;
22881;SDS011;11608;50.894;5.296;2023-06-14T14:08:07;19.45;;;17.90;;
22881;SDS011;11608;50.894;5.296;2023-06-14T14:10:33;19.38;;;17.85;;
22881;SDS011;11608;50.894;5.296;2023-06-14T14:12:59;19.20;;;17.80;;
22881;SDS011;11608;50.894;5.296;2023-06-14T14:15:26;18.98;;;17.58;;
22881;SDS011;11608;50.894;5.296;2023-06-14T14:17:53;18.77;;;17.48;;
22881;SDS011;11608;50.894;5.296;2023-06-14T14:20:19;19.52;;;17.98;;
22881;SDS011;11608;50.894;5.296;2023-06-14T14:22:45;18.92;;;17.35;;
22881;SDS011;11608;50.894;5.296;2023-06-14T14:25:11;19.80;;;18.13;;
22881;SDS011;11608;50.894;5.296;2023-06-14T14:27:37;19.52;;;18.13;;